Rogers Park, Illinois
Current Conditions -  °F | °C
As of 6:51 AM on Thursday 18 Dec 2014 (Local Time) from KORD Reporting Station
Few Clouds Few Clouds  
Wind Chill: 19°   Ceiling: Unl
Heat Index: 19°   Visibility: 10mi
Dew Point: 13°   Wind: 3mph
Humidity: 77%   Direction: 260°W
Pressure: 30.27"   Gusts: NA
Location:  41.991°N, 87.6654°W
Report Text: KORD 181251Z 26003KT 10SM FEW022 M07/M11 A3027 RMK AO2 SLP261 T10721106
Loading
Personal Weather Stations






























Interactive Weather Map New forecast layout! Learn more

10-Day Weather Forecast

Advertisements
Track Severe Weather on mobile